Ag Nektarios Aiginas — SX7083 — position and weather

sailwx.info

Track history (hours):
 
Tides and Currents Weather Stations Pressure Air Temp Water Temp Dewpoint Dewpoint Depression Visibility Wind Speed Wind Dir Waves Ship Positions

Ag Nektarios Aiginas

Last reported at 2016-May-02 20:23 UTC. Time now 2016-May-03 01:03 UTC.
Position N 37°57' E 023°39'.

Length 75 m; draft 2.7 m.

Type: Passenger vessel. MMSI: 237021400.

Date/timePositionNaut miles runAvg speedWind from/ knotsBaromVisibWave heightAir tempDewpointWater temp
2016-May-02 20:23N 37°57' E 023°39'5 6.5
2016-May-02 19:33N 37°52' E 023°35'1010.2
2016-May-02 18:32N 37°45' E 023°25'4 3.8
2016-May-02 17:33N 37°48' E 023°28'1211.8
2016-May-02 16:33N 37°56' E 023°38'7 6.8
2016-May-02 15:33N 37°51' E 023°33'9 8.6
2016-May-02 14:33N 37°45' E 023°26'4 4.2
2016-May-02 13:33N 37°48' E 023°29'1211.6
2016-May-02 12:33N 37°57' E 023°38'7 6.6
2016-May-02 11:33N 37°52' E 023°33'9 9.1
2016-May-02 10:33N 37°45' E 023°25'4 3.9
2016-May-02 09:33N 37°48' E 023°28'1211.7
2016-May-02 08:33N 37°57' E 023°38'4 4.4
2016-May-02 07:33N 37°53' E 023°35'1111.2
2016-May-02 06:33N 37°45' E 023°25'6 6.4
2016-May-02 05:33N 37°50' E 023°31'9 9.4
2016-May-02 04:33N 37°57' E 023°39'0 0.0
2016-Apr-30 17:04N 37°57' E 023°39'2 3.6
2016-Apr-30 16:33N 37°56' E 023°37'1312.5
2016-Apr-30 15:33N 37°47' E 023°26'1 0.6
2016-Apr-30 14:33N 37°46' E 023°25'1212.3
2016-Apr-30 13:33N 37°55' E 023°36'1 1.0
2016-Apr-30 12:33N 37°56' E 023°37'1212.4
2016-Apr-30 11:33N 37°47' E 023°26'1 0.9
2016-Apr-30 10:32N 37°46' E 023°25'1212.6
2016-Apr-30 09:33N 37°55' E 023°36'2 2.3
2016-Apr-30 08:33N 37°57' E 023°38'1111.5
2016-Apr-30 07:33N 37°48' E 023°28'2 2.2
2016-Apr-30 06:33N 37°47' E 023°26'1212.6
2016-Apr-30 05:33N 37°56' E 023°37'2 1.5
2016-Apr-30 04:33N 37°57' E 023°39'1 0.1
2016-Apr-29 16:33N 37°56' E 023°38'1312.8
2016-Apr-29 15:33N 37°47' E 023°26'1 0.5
2016-Apr-29 14:33N 37°47' E 023°26'1212.3
2016-Apr-29 13:34N 37°56' E 023°37'0 0.4
2016-Apr-29 12:33N 37°56' E 023°36'1312.6
2016-Apr-29 11:33N 37°47' E 023°25'3 2.5
2016-Apr-29 10:33N 37°48' E 023°28'1211.9
2016-Apr-29 09:33N 37°57' E 023°38'2 1.8
2016-Apr-29 08:33N 37°56' E 023°36'1212.3
2016-Apr-29 07:33N 37°47' E 023°26'3 2.6
2016-Apr-29 06:33N 37°48' E 023°28'1211.7
2016-Apr-29 05:33N 37°57' E 023°38'0 0.0
2016-Apr-29 04:33N 37°57' E 023°38'0 0.0
2016-Apr-28 20:12N 37°57' E 023°38'3 4.0
2016-Apr-28 19:34N 37°55' E 023°36'1312.7
2016-Apr-28 18:34N 37°46' E 023°25'5 5.0
2016-Apr-28 17:33N 37°49' E 023°30'1010.3
2016-Apr-28 16:34N 37°57' E 023°39'4 4.1
2016-Apr-28 15:34N 37°54' E 023°35'1211.9
2016-Apr-28 14:34N 37°45' E 023°25'6 5.7
2016-Apr-28 13:34N 37°49' E 023°30'1010.2
2016-Apr-28 12:34N 37°57' E 023°38'4 4.0
2016-Apr-28 11:34N 37°54' E 023°35'1211.9
2016-Apr-28 10:33N 37°45' E 023°25'7 7.0
2016-Apr-28 09:34N 37°50' E 023°31'9 9.0
2016-Apr-28 08:33N 37°57' E 023°38'5 5.5
2016-Apr-28 07:33N 37°52' E 023°34'1010.1
2016-Apr-28 06:32N 37°45' E 023°25'8 7.8
2016-Apr-28 05:34N 37°50' E 023°32'8 8.2
2016-Apr-28 04:34N 37°57' E 023°39'0 0.0
2016-Apr-27 17:03N 37°57' E 023°39'2 3.5
2016-Apr-27 16:33N 37°56' E 023°37'1312.6
2016-Apr-27 15:33N 37°47' E 023°26'1 0.7
2016-Apr-27 14:33N 37°47' E 023°26'1211.8
2016-Apr-27 13:33N 37°56' E 023°36'0 0.1
2016-Apr-27 12:33N 37°56' E 023°36'1312.8
2016-Apr-27 11:33N 37°46' E 023°25'1 1.3
2016-Apr-27 10:33N 37°47' E 023°27'1212.0
2016-Apr-27 09:34N 37°56' E 023°37'1 1.2
2016-Apr-27 08:33N 37°57' E 023°38'1211.9
2016-Apr-27 07:33N 37°48' E 023°28'1 1.4
2016-Apr-27 06:33N 37°47' E 023°27'1212.1
2016-Apr-27 05:33N 37°56' E 023°37'1 1.4
2016-Apr-27 04:33N 37°57' E 023°38'0 0.0
2016-Apr-26 17:34N 37°57' E 023°38'7 7.3
2016-Apr-26 16:34N 37°51' E 023°33'8 8.4
2016-Apr-26 15:33N 37°45' E 023°25'5 4.6
2016-Apr-26 14:34N 37°48' E 023°29'1111.0
2016-Apr-26 13:33N 37°57' E 023°38'6 5.9
2016-Apr-26 12:34N 37°52' E 023°34'10 9.0
2016-Apr-26 11:27N 37°45' E 023°25'5 5.9
2016-Apr-26 10:34N 37°49' E 023°30'1110.5
2016-Apr-26 09:33N 37°57' E 023°39'3 2.8
2016-Apr-26 08:34N 37°55' E 023°36'1111.0
2016-Apr-26 07:33N 37°47' E 023°26'1 1.1
2016-Apr-26 06:33N 37°47' E 023°27'1211.9
2016-Apr-26 05:33N 37°56' E 023°37'1 1.1
2016-Apr-26 04:34N 37°57' E 023°39'2 0.2
2016-Apr-25 16:33N 37°55' E 023°36'1211.7
2016-Apr-25 15:33N 37°47' E 023°26'0 0.2
2016-Apr-25 14:33N 37°47' E 023°26'1212.1
2016-Apr-25 13:33N 37°56' E 023°36'1 0.8
2016-Apr-25 12:33N 37°56' E 023°37'1212.3
2016-Apr-25 11:33N 37°47' E 023°26'1 1.4
2016-Apr-25 10:33N 37°46' E 023°25'1212.5
2016-Apr-25 09:33N 37°55' E 023°36'2 1.9
2016-Apr-25 08:33N 37°56' E 023°37'1212.1
2016-Apr-25 07:33N 37°47' E 023°27'1 0.5
2016-Apr-25 06:33N 37°48' E 023°27'1212.2
2016-Apr-25 05:32N 37°56' E 023°38'0 0.4
2016-Apr-25 04:33N 37°57' E 023°39'1 0.1
2016-Apr-24 16:33N 37°56' E 023°37'1212.5
2016-Apr-24 15:33N 37°47' E 023°26'2 1.6
2016-Apr-24 14:33N 37°46' E 023°25'1212.4
2016-Apr-24 13:33N 37°55' E 023°36'2 1.6
2016-Apr-24 12:33N 37°56' E 023°36'1212.4
2016-Apr-24 11:33N 37°47' E 023°26'1 1.1
2016-Apr-24 10:33N 37°46' E 023°25'1312.5
2016-Apr-24 09:33N 37°55' E 023°36'2 2.5
2016-Apr-24 08:33N 37°57' E 023°38'1111.4
2016-Apr-24 07:33N 37°48' E 023°29'2 2.1
2016-Apr-24 06:33N 37°47' E 023°27'1212.4
2016-Apr-24 05:33N 37°56' E 023°37'1 1.2
2016-Apr-24 04:33N 37°57' E 023°39'2 0.2
2016-Apr-23 16:33N 37°56' E 023°37'1312.5
2016-Apr-23 15:33N 37°47' E 023°26'0 0.4
2016-Apr-23 14:33N 37°46' E 023°25'1212.3
2016-Apr-23 13:34N 37°55' E 023°36'1 0.9
2016-Apr-23 12:34N 37°56' E 023°36'1312.5
2016-Apr-23 11:33N 37°47' E 023°26'0 0.1
2016-Apr-23 10:32N 37°47' E 023°26'1212.3
2016-Apr-23 09:34N 37°56' E 023°36'1 0.7
2016-Apr-23 08:33N 37°56' E 023°36'1212.3
2016-Apr-23 07:34N 37°47' E 023°26'1 1.3
2016-Apr-23 06:33N 37°48' E 023°27'1212.2
2016-Apr-23 05:33N 37°56' E 023°38'1 0.6
2016-Apr-23 04:34N 37°57' E 023°39'  
Track history (hours):
 
Tides and Currents Weather Stations Pressure Air Temp Water Temp Dewpoint Dewpoint Depression Visibility Wind Speed Wind Dir Waves Ship Positions

Ag Nektarios Aiginas

Last reported at 2016-May-02 20:23 UTC. Time now 2016-May-03 01:03 UTC.
Position N 37°57' E 023°39'.

Length 75 m; draft 2.7 m.

Type: Passenger vessel. MMSI: 237021400.

Date/timePositionNaut miles runAvg speedWind from/ knotsBaromVisibWave heightAir tempDewpointWater temp
2016-May-02 20:23N 37°57' E 023°39'5 6.5
2016-May-02 19:33N 37°52' E 023°35'1010.2
2016-May-02 18:32N 37°45' E 023°25'4 3.8
2016-May-02 17:33N 37°48' E 023°28'1211.8
2016-May-02 16:33N 37°56' E 023°38'7 6.8
2016-May-02 15:33N 37°51' E 023°33'9 8.6
2016-May-02 14:33N 37°45' E 023°26'4 4.2
2016-May-02 13:33N 37°48' E 023°29'1211.6
2016-May-02 12:33N 37°57' E 023°38'7 6.6
2016-May-02 11:33N 37°52' E 023°33'9 9.1
2016-May-02 10:33N 37°45' E 023°25'4 3.9
2016-May-02 09:33N 37°48' E 023°28'1211.7
2016-May-02 08:33N 37°57' E 023°38'4 4.4
2016-May-02 07:33N 37°53' E 023°35'1111.2
2016-May-02 06:33N 37°45' E 023°25'6 6.4
2016-May-02 05:33N 37°50' E 023°31'9 9.4
2016-May-02 04:33N 37°57' E 023°39'0 0.0
2016-Apr-30 17:04N 37°57' E 023°39'2 3.6
2016-Apr-30 16:33N 37°56' E 023°37'1312.5
2016-Apr-30 15:33N 37°47' E 023°26'1 0.6
2016-Apr-30 14:33N 37°46' E 023°25'1212.3
2016-Apr-30 13:33N 37°55' E 023°36'1 1.0
2016-Apr-30 12:33N 37°56' E 023°37'1212.4
2016-Apr-30 11:33N 37°47' E 023°26'1 0.9
2016-Apr-30 10:32N 37°46' E 023°25'1212.6
2016-Apr-30 09:33N 37°55' E 023°36'2 2.3
2016-Apr-30 08:33N 37°57' E 023°38'1111.5
2016-Apr-30 07:33N 37°48' E 023°28'2 2.2
2016-Apr-30 06:33N 37°47' E 023°26'1212.6
2016-Apr-30 05:33N 37°56' E 023°37'2 1.5
2016-Apr-30 04:33N 37°57' E 023°39'1 0.1
2016-Apr-29 16:33N 37°56' E 023°38'1312.8
2016-Apr-29 15:33N 37°47' E 023°26'1 0.5
2016-Apr-29 14:33N 37°47' E 023°26'1212.3
2016-Apr-29 13:34N 37°56' E 023°37'0 0.4
2016-Apr-29 12:33N 37°56' E 023°36'1312.6
2016-Apr-29 11:33N 37°47' E 023°25'3 2.5
2016-Apr-29 10:33N 37°48' E 023°28'1211.9
2016-Apr-29 09:33N 37°57' E 023°38'2 1.8
2016-Apr-29 08:33N 37°56' E 023°36'1212.3
2016-Apr-29 07:33N 37°47' E 023°26'3 2.6
2016-Apr-29 06:33N 37°48' E 023°28'1211.7
2016-Apr-29 05:33N 37°57' E 023°38'0 0.0
2016-Apr-29 04:33N 37°57' E 023°38'0 0.0
2016-Apr-28 20:12N 37°57' E 023°38'3 4.0
2016-Apr-28 19:34N 37°55' E 023°36'1312.7
2016-Apr-28 18:34N 37°46' E 023°25'5 5.0
2016-Apr-28 17:33N 37°49' E 023°30'1010.3
2016-Apr-28 16:34N 37°57' E 023°39'4 4.1
2016-Apr-28 15:34N 37°54' E 023°35'1211.9
2016-Apr-28 14:34N 37°45' E 023°25'6 5.7
2016-Apr-28 13:34N 37°49' E 023°30'1010.2
2016-Apr-28 12:34N 37°57' E 023°38'4 4.0
2016-Apr-28 11:34N 37°54' E 023°35'1211.9
2016-Apr-28 10:33N 37°45' E 023°25'7 7.0
2016-Apr-28 09:34N 37°50' E 023°31'9 9.0
2016-Apr-28 08:33N 37°57' E 023°38'5 5.5
2016-Apr-28 07:33N 37°52' E 023°34'1010.1
2016-Apr-28 06:32N 37°45' E 023°25'8 7.8
2016-Apr-28 05:34N 37°50' E 023°32'8 8.2
2016-Apr-28 04:34N 37°57' E 023°39'0 0.0
2016-Apr-27 17:03N 37°57' E 023°39'2 3.5
2016-Apr-27 16:33N 37°56' E 023°37'1312.6
2016-Apr-27 15:33N 37°47' E 023°26'1 0.7
2016-Apr-27 14:33N 37°47' E 023°26'1211.8
2016-Apr-27 13:33N 37°56' E 023°36'0 0.1
2016-Apr-27 12:33N 37°56' E 023°36'1312.8
2016-Apr-27 11:33N 37°46' E 023°25'1 1.3
2016-Apr-27 10:33N 37°47' E 023°27'1212.0
2016-Apr-27 09:34N 37°56' E 023°37'1 1.2
2016-Apr-27 08:33N 37°57' E 023°38'1211.9
2016-Apr-27 07:33N 37°48' E 023°28'1 1.4
2016-Apr-27 06:33N 37°47' E 023°27'1212.1
2016-Apr-27 05:33N 37°56' E 023°37'1 1.4
2016-Apr-27 04:33N 37°57' E 023°38'0 0.0
2016-Apr-26 17:34N 37°57' E 023°38'7 7.3
2016-Apr-26 16:34N 37°51' E 023°33'8 8.4
2016-Apr-26 15:33N 37°45' E 023°25'5 4.6
2016-Apr-26 14:34N 37°48' E 023°29'1111.0
2016-Apr-26 13:33N 37°57' E 023°38'6 5.9
2016-Apr-26 12:34N 37°52' E 023°34'10 9.0
2016-Apr-26 11:27N 37°45' E 023°25'5 5.9
2016-Apr-26 10:34N 37°49' E 023°30'1110.5
2016-Apr-26 09:33N 37°57' E 023°39'3 2.8
2016-Apr-26 08:34N 37°55' E 023°36'1111.0
2016-Apr-26 07:33N 37°47' E 023°26'1 1.1
2016-Apr-26 06:33N 37°47' E 023°27'1211.9
2016-Apr-26 05:33N 37°56' E 023°37'1 1.1
2016-Apr-26 04:34N 37°57' E 023°39'2 0.2
2016-Apr-25 16:33N 37°55' E 023°36'1211.7
2016-Apr-25 15:33N 37°47' E 023°26'0 0.2
2016-Apr-25 14:33N 37°47' E 023°26'1212.1
2016-Apr-25 13:33N 37°56' E 023°36'1 0.8
2016-Apr-25 12:33N 37°56' E 023°37'1212.3
2016-Apr-25 11:33N 37°47' E 023°26'1 1.4
2016-Apr-25 10:33N 37°46' E 023°25'1212.5
2016-Apr-25 09:33N 37°55' E 023°36'2 1.9
2016-Apr-25 08:33N 37°56' E 023°37'1212.1
2016-Apr-25 07:33N 37°47' E 023°27'1 0.5
2016-Apr-25 06:33N 37°48' E 023°27'1212.2
2016-Apr-25 05:32N 37°56' E 023°38'0 0.4
2016-Apr-25 04:33N 37°57' E 023°39'1 0.1
2016-Apr-24 16:33N 37°56' E 023°37'1212.5
2016-Apr-24 15:33N 37°47' E 023°26'2 1.6
2016-Apr-24 14:33N 37°46' E 023°25'1212.4
2016-Apr-24 13:33N 37°55' E 023°36'2 1.6
2016-Apr-24 12:33N 37°56' E 023°36'1212.4
2016-Apr-24 11:33N 37°47' E 023°26'1 1.1
2016-Apr-24 10:33N 37°46' E 023°25'1312.5
2016-Apr-24 09:33N 37°55' E 023°36'2 2.5
2016-Apr-24 08:33N 37°57' E 023°38'1111.4
2016-Apr-24 07:33N 37°48' E 023°29'2 2.1
2016-Apr-24 06:33N 37°47' E 023°27'1212.4
2016-Apr-24 05:33N 37°56' E 023°37'1 1.2
2016-Apr-24 04:33N 37°57' E 023°39'2 0.2
2016-Apr-23 16:33N 37°56' E 023°37'1312.5
2016-Apr-23 15:33N 37°47' E 023°26'0 0.4
2016-Apr-23 14:33N 37°46' E 023°25'1212.3
2016-Apr-23 13:34N 37°55' E 023°36'1 0.9
2016-Apr-23 12:34N 37°56' E 023°36'1312.5
2016-Apr-23 11:33N 37°47' E 023°26'0 0.1
2016-Apr-23 10:32N 37°47' E 023°26'1212.3
2016-Apr-23 09:34N 37°56' E 023°36'1 0.7
2016-Apr-23 08:33N 37°56' E 023°36'1212.3
2016-Apr-23 07:34N 37°47' E 023°26'1 1.3
2016-Apr-23 06:33N 37°48' E 023°27'1212.2
2016-Apr-23 05:33N 37°56' E 023°38'1 0.6
2016-Apr-23 04:34N 37°57' E 023°39'  

Dump ship's entire track history